createdAt,value
2018-05-04T00:02:10.224Z,98164.09
2018-05-04T00:04:38.515Z,98166.03
2018-05-04T00:07:06.830Z,98162.33
2018-05-04T00:09:35.470Z,98155.95
2018-05-04T00:12:03.939Z,98158.53
2018-05-04T00:14:32.228Z,98148.52
2018-05-04T00:17:00.534Z,98149.22
2018-05-04T00:19:28.870Z,98151.21
2018-05-04T00:21:57.167Z,98145.92
2018-05-04T00:24:25.455Z,98145.23
2018-05-04T00:26:54.215Z,98147.67
2018-05-04T00:29:22.503Z,98151.14
2018-05-04T00:31:50.789Z,98143.61
2018-05-04T00:34:19.144Z,98140.86
2018-05-04T00:36:47.432Z,98137.03
2018-05-04T00:39:15.710Z,98128.41
2018-05-04T00:41:44.048Z,98119.86
2018-05-04T00:44:12.478Z,98124.98
2018-05-04T00:46:40.765Z,98118.80
2018-05-04T00:49:09.843Z,98124.31
2018-05-04T00:51:38.139Z,98127.46
2018-05-04T00:54:23.915Z,98133.04
2018-05-04T00:56:52.193Z,98130.80
2018-05-04T00:59:20.477Z,98140.43
2018-05-04T01:01:48.787Z,98136.58
2018-05-04T01:04:17.087Z,98139.42
2018-05-04T01:06:45.398Z,98143.97
2018-05-04T01:09:13.687Z,98144.86
2018-05-04T01:11:42.783Z,98158.14
2018-05-04T01:14:11.087Z,98157.49
2018-05-04T01:16:39.378Z,98158.31
2018-05-04T01:19:07.745Z,98160.25
2018-05-04T01:21:36.783Z,98159.38
2018-05-04T01:24:05.419Z,98163.83
2018-05-04T01:26:33.729Z,98161.11
2018-05-04T01:29:02.025Z,98165.48
2018-05-04T01:31:30.343Z,98169.35
2018-05-04T01:33:59.390Z,98167.08
2018-05-04T01:36:27.709Z,98167.61
2018-05-04T01:38:56.007Z,98163.52
2018-05-04T01:41:25.183Z,98164.42
2018-05-04T01:43:54.258Z,98169.86
2018-05-04T01:46:22.542Z,98168.14
2018-05-04T01:48:50.897Z,98164.20
2018-05-04T01:51:19.428Z,98171.88
2018-05-04T01:53:47.727Z,98176.61
2018-05-04T01:56:16.060Z,98180.09
2018-05-04T01:58:44.339Z,98176.77
2018-05-04T02:01:12.698Z,98180.13
2018-05-04T02:03:41.712Z,98182.62
2018-05-04T02:06:10.119Z,98183.53
2018-05-04T02:08:38.403Z,98185.03
2018-05-04T02:11:07.366Z,98179.44
2018-05-04T02:13:36.419Z,98181.22
2018-05-04T02:16:05.125Z,98176.30
2018-05-04T02:18:33.550Z,98180.81
2018-05-04T02:21:02.186Z,98177.28
2018-05-04T02:23:30.516Z,98173.97
2018-05-04T02:25:58.828Z,98170.72
2018-05-04T02:28:27.118Z,98173.01
2018-05-04T02:30:56.466Z,98171.42
2018-05-04T02:33:25.149Z,98166.20
2018-05-04T02:35:53.474Z,98171.38
2018-05-04T02:38:21.778Z,98174.33
2018-05-04T02:40:50.144Z,98179.71
2018-05-04T02:43:19.881Z,98183.94
2018-05-04T02:45:48.198Z,98187.19
2018-05-04T02:48:16.907Z,98187.67
2018-05-04T02:50:45.202Z,98187.36
2018-05-04T02:53:13.684Z,98184.67
2018-05-04T02:55:41.840Z,98188.80
2018-05-04T02:58:10.443Z,98194.95
2018-05-04T03:00:39.319Z,98189.83
2018-05-04T03:03:08.191Z,98185.01
2018-05-04T03:05:36.686Z,98186.36
2018-05-04T03:08:05.067Z,98183.15
2018-05-04T03:10:33.395Z,98180.52
2018-05-04T03:13:01.689Z,98182.59
2018-05-04T03:15:29.970Z,98187.79
2018-05-04T03:17:59.518Z,98182.31
2018-05-04T03:20:28.124Z,98187.23
2018-05-04T03:22:57.174Z,98194.11
2018-05-04T03:25:25.487Z,98202.58
2018-05-04T03:27:53.778Z,98198.05
2018-05-04T03:30:22.851Z,98198.85
2018-05-04T03:32:51.130Z,98201.80
2018-05-04T03:35:19.415Z,98199.55
2018-05-04T03:37:47.758Z,98202.78
2018-05-04T03:40:16.049Z,98197.94
2018-05-04T03:42:44.428Z,98207.58
2018-05-04T03:45:12.741Z,98211.53
2018-05-04T03:47:41.790Z,98210.64
2018-05-04T03:50:10.079Z,98209.34
2018-05-04T03:52:38.414Z,98214.45
2018-05-04T03:55:07.959Z,98213.98
2018-05-04T03:57:53.883Z,98209.00
2018-05-04T04:00:39.805Z,98208.38
2018-05-04T04:03:25.717Z,98213.30
2018-05-04T04:05:54.015Z,98216.72
2018-05-04T04:08:23.030Z,98210.91
2018-05-04T04:10:52.142Z,98214.25
2018-05-04T04:13:20.657Z,98212.39
2018-05-04T04:15:49.047Z,98213.56
2018-05-04T04:18:17.378Z,98215.94
2018-05-04T04:20:45.666Z,98223.09
2018-05-04T04:23:13.982Z,98225.02
2018-05-04T04:25:42.306Z,98227.20
2018-05-04T04:28:11.406Z,98226.87
2018-05-04T04:30:39.688Z,98231.20
2018-05-04T04:33:08.346Z,98225.20
2018-05-04T04:35:36.626Z,98225.44
2018-05-04T04:38:05.447Z,98222.28
2018-05-04T04:40:35.138Z,98218.42
2018-05-04T04:43:03.425Z,98225.98
2018-05-04T04:45:31.739Z,98225.19
2018-05-04T04:48:00.201Z,98232.65
2018-05-04T04:50:28.491Z,98223.92
2018-05-04T04:52:56.772Z,98225.82
2018-05-04T04:55:25.363Z,98224.42
2018-05-04T04:57:53.851Z,98227.09
2018-05-04T05:00:21.900Z,98227.31
2018-05-04T05:02:50.587Z,98221.62
2018-05-04T05:05:19.343Z,98221.62
2018-05-04T05:07:47.682Z,98225.55
2018-05-04T05:10:16.334Z,98224.58
2018-05-04T05:12:45.383Z,98224.16
2018-05-04T05:15:13.694Z,98231.83
2018-05-04T05:17:42.659Z,98235.11
2018-05-04T05:20:11.531Z,98235.88
2018-05-04T05:22:40.056Z,98225.83
2018-05-04T05:25:08.343Z,98226.40
2018-05-04T05:27:36.752Z,98224.73
2018-05-04T05:30:05.042Z,98225.61
2018-05-04T05:32:33.633Z,98230.16
2018-05-04T05:35:01.928Z,98230.31
2018-05-04T05:37:30.222Z,98232.00
2018-05-04T05:39:58.571Z,98230.11
2018-05-04T05:42:27.383Z,98236.80
2018-05-04T05:44:56.023Z,98237.35
2018-05-04T05:47:24.550Z,98242.61
2018-05-04T05:49:52.842Z,98233.45
2018-05-04T05:52:21.138Z,98235.75
2018-05-04T05:54:50.650Z,98246.28
2018-05-04T05:57:18.959Z,98245.16
2018-05-04T05:59:47.242Z,98235.83
2018-05-04T06:02:15.571Z,98240.16
2018-05-04T06:04:44.707Z,98244.11
2018-05-04T06:07:13.833Z,98245.72
2018-05-04T06:09:42.578Z,98243.19
2018-05-04T06:12:11.294Z,98247.05
2018-05-04T06:14:39.624Z,98234.38
2018-05-04T06:17:08.530Z,98238.71
2018-05-04T06:19:36.954Z,98241.97
2018-05-04T06:22:05.897Z,98236.85
2018-05-04T06:24:34.839Z,98240.13
2018-05-04T06:27:03.933Z,98246.23
2018-05-04T06:29:32.250Z,98242.19
2018-05-04T06:32:00.543Z,98242.39
2018-05-04T06:34:28.826Z,98234.65
2018-05-04T06:36:57.763Z,98234.47
2018-05-04T06:39:26.814Z,98230.02
2018-05-04T06:41:55.409Z,98238.11
2018-05-04T06:44:23.830Z,98236.38
2018-05-04T06:46:52.114Z,98239.47
2018-05-04T06:49:20.453Z,98235.66
2018-05-04T06:51:48.795Z,98237.64
2018-05-04T06:54:17.084Z,98236.68
2018-05-04T06:56:45.366Z,98239.92
2018-05-04T06:59:13.703Z,98238.75
2018-05-04T07:01:42.516Z,98232.42
2018-05-04T07:04:10.892Z,98242.27
2018-05-04T07:06:39.794Z,98246.92
2018-05-04T07:09:08.072Z,98254.66
2018-05-04T07:11:36.390Z,98248.63
2018-05-04T07:14:05.851Z,98258.81
2018-05-04T07:16:34.138Z,98253.86
2018-05-04T07:19:02.538Z,98262.56
2018-05-04T07:21:31.530Z,98247.98
2018-05-04T07:23:59.868Z,98257.58
2018-05-04T07:26:28.152Z,98252.53
2018-05-04T07:28:56.442Z,98248.31
2018-05-04T07:31:25.718Z,98239.91
2018-05-04T07:33:54.016Z,98245.86
2018-05-04T07:36:22.293Z,98246.72
2018-05-04T07:38:51.773Z,98253.03
2018-05-04T07:41:20.050Z,98252.02
2018-05-04T07:43:48.695Z,98249.38
2018-05-04T07:46:17.566Z,98252.94
2018-05-04T07:48:46.098Z,98256.21
2018-05-04T07:51:14.658Z,98247.02
2018-05-04T07:53:43.766Z,98245.45
2018-05-04T07:56:12.174Z,98238.75
2018-05-04T07:58:40.856Z,98245.99
2018-05-04T08:01:09.426Z,98245.74
2018-05-04T08:03:37.711Z,98245.50
2018-05-04T08:06:06.003Z,98242.23
2018-05-04T08:08:34.437Z,98249.64
2018-05-04T08:11:02.767Z,98253.31
2018-05-04T08:13:31.062Z,98253.71
2018-05-04T08:15:59.368Z,98261.14
2018-05-04T08:18:27.653Z,98259.47
2018-05-04T08:20:59.879Z,98256.59
2018-05-04T08:23:28.167Z,98255.37
2018-05-04T08:25:56.502Z,98247.92
2018-05-04T08:28:25.070Z,98254.19
2018-05-04T08:30:53.351Z,98248.58
2018-05-04T08:33:21.661Z,98250.70
2018-05-04T08:35:49.939Z,98250.98
2018-05-04T08:38:18.026Z,98250.27
2018-05-04T08:40:46.317Z,98251.57
2018-05-04T08:43:14.673Z,98258.06
2018-05-04T08:45:43.562Z,98255.32
2018-05-04T08:48:11.894Z,98256.45
2018-05-04T08:50:40.179Z,98252.59
2018-05-04T08:53:08.642Z,98252.44
2018-05-04T08:55:36.927Z,98252.67
2018-05-04T08:58:05.291Z,98256.86
2018-05-04T09:00:34.378Z,98245.78
2018-05-04T09:03:03.426Z,98248.45
2018-05-04T09:05:31.728Z,98256.50
2018-05-04T09:08:00.063Z,98258.63
2018-05-04T09:10:28.347Z,98244.66
2018-05-04T09:12:56.854Z,98252.33
2018-05-04T09:15:25.168Z,98251.05
2018-05-04T09:17:53.463Z,98251.88
2018-05-04T09:20:21.789Z,98252.98
2018-05-04T09:22:50.106Z,98247.49
2018-05-04T09:25:18.684Z,98242.27
2018-05-04T09:27:46.966Z,98249.00
2018-05-04T09:30:15.311Z,98247.23
2018-05-04T09:32:43.600Z,98251.03
2018-05-04T09:35:12.381Z,98249.72
2018-05-04T09:37:40.710Z,98248.34
2018-05-04T09:40:09.979Z,98249.53
2018-05-04T09:42:38.266Z,98250.88
2018-05-04T09:45:06.587Z,98251.66
2018-05-04T09:47:35.186Z,98246.48
2018-05-04T09:50:03.730Z,98247.45
2018-05-04T09:52:32.038Z,98244.89
2018-05-04T09:55:00.343Z,98242.16
2018-05-04T09:57:29.319Z,98235.37
2018-05-04T09:59:57.607Z,98226.70
2018-05-04T10:02:25.899Z,98234.06
2018-05-04T10:04:54.223Z,98231.61
2018-05-04T10:07:22.617Z,98226.34
2018-05-04T10:09:50.907Z,98222.45
2018-05-04T10:12:19.402Z,98223.67
2018-05-04T10:14:47.691Z,98223.30
2018-05-04T10:17:17.999Z,98211.11
2018-05-04T10:19:47.088Z,98210.34
2018-05-04T10:22:15.586Z,98209.97
2018-05-04T10:24:43.875Z,98203.59
2018-05-04T10:27:12.203Z,98202.09
2018-05-04T10:29:40.487Z,98200.61
2018-05-04T10:32:09.407Z,98199.75
2018-05-04T10:34:37.722Z,98199.43
2018-05-04T10:37:06.014Z,98201.52
2018-05-04T10:39:34.332Z,98197.34
2018-05-04T10:42:02.378Z,98199.64
2018-05-04T10:44:30.687Z,98203.73
2018-05-04T10:46:59.044Z,98199.08
2018-05-04T10:49:27.330Z,98200.53
2018-05-04T10:51:55.622Z,98200.23
2018-05-04T10:54:23.963Z,98203.82
2018-05-04T10:56:52.255Z,98193.14
2018-05-04T10:59:20.537Z,98200.45
2018-05-04T11:01:49.429Z,98200.23
2018-05-04T11:04:17.714Z,98205.48
2018-05-04T11:06:45.998Z,98201.91
2018-05-04T11:09:14.311Z,98210.31
2018-05-04T11:11:42.608Z,98202.98
2018-05-04T11:14:10.938Z,98207.62
2018-05-04T11:16:39.227Z,98194.48
2018-05-04T11:19:08.277Z,98192.50
2018-05-04T11:21:36.587Z,98192.06
2018-05-04T11:24:04.952Z,98193.82
2018-05-04T11:26:33.295Z,98192.30
2018-05-04T11:29:02.118Z,98199.77
2018-05-04T11:31:30.416Z,98184.97
2018-05-04T11:33:58.831Z,98184.05
2018-05-04T11:36:27.131Z,98188.88
2018-05-04T11:38:55.517Z,98188.50
2018-05-04T11:41:23.927Z,98192.52
2018-05-04T11:43:52.631Z,98190.56
2018-05-04T11:46:21.359Z,98181.03
2018-05-04T11:48:49.637Z,98184.77
2018-05-04T11:51:18.559Z,98187.61
2018-05-04T11:53:46.851Z,98186.99
2018-05-04T11:56:15.138Z,98182.29
2018-05-04T11:58:44.242Z,98184.98
2018-05-04T12:01:13.291Z,98193.16
2018-05-04T12:03:41.566Z,98185.23
2018-05-04T12:06:09.888Z,98189.05
2018-05-04T12:08:38.934Z,98186.35
2018-05-04T12:11:07.213Z,98181.77
2018-05-04T12:13:35.542Z,98176.17
2018-05-04T12:16:04.588Z,98181.92
2018-05-04T12:18:32.886Z,98181.32
2018-05-04T12:21:01.215Z,98180.56
2018-05-04T12:23:29.503Z,98173.67
2018-05-04T12:25:58.194Z,98190.28
2018-05-04T12:28:26.535Z,98182.70
2018-05-04T12:30:54.828Z,98177.33
2018-05-04T12:33:23.162Z,98176.80
2018-05-04T12:35:51.482Z,98179.70
2018-05-04T12:38:19.782Z,98178.73
2018-05-04T12:40:48.091Z,98180.55
2018-05-04T12:43:16.391Z,98174.16
2018-05-04T12:45:44.711Z,98177.67
2018-05-04T12:48:12.994Z,98164.16
2018-05-04T12:50:41.282Z,98181.16
2018-05-04T12:53:09.593Z,98170.62
2018-05-04T12:55:37.878Z,98168.75
2018-05-04T12:58:06.966Z,98157.11
2018-05-04T13:00:35.250Z,98169.70
2018-05-04T13:03:03.538Z,98172.37
2018-05-04T13:05:32.479Z,98170.84
2018-05-04T13:08:00.771Z,98161.22
2018-05-04T13:10:29.054Z,98160.80
2018-05-04T13:12:57.429Z,98162.81
2018-05-04T13:15:25.719Z,98148.70
2018-05-04T13:17:55.003Z,98144.60
2018-05-04T13:20:23.327Z,98141.70
2018-05-04T13:22:52.018Z,98143.33
2018-05-04T13:25:21.182Z,98141.67
2018-05-04T13:27:50.492Z,98140.80
2018-05-04T13:30:18.943Z,98142.65
2018-05-04T13:32:47.230Z,98130.14
2018-05-04T13:35:15.556Z,98126.93
2018-05-04T13:37:43.836Z,98125.67
2018-05-04T13:40:12.183Z,98125.80
2018-05-04T13:42:40.482Z,98127.57
2018-05-04T13:45:08.785Z,98131.11
2018-05-04T13:47:37.070Z,98134.80
2018-05-04T13:50:05.758Z,98119.91
2018-05-04T13:52:34.074Z,98130.32
2018-05-04T13:55:02.555Z,98130.70
2018-05-04T13:57:30.889Z,98124.48
2018-05-04T13:59:59.170Z,98127.82
2018-05-04T14:02:27.454Z,98127.88
2018-05-04T14:04:56.503Z,98125.80
2018-05-04T14:07:24.803Z,98123.94
2018-05-04T14:09:53.096Z,98114.77
2018-05-04T14:12:21.443Z,98122.63
2018-05-04T14:14:49.731Z,98117.28
2018-05-04T14:17:18.019Z,98118.45
2018-05-04T14:19:46.907Z,98119.34
2018-05-04T14:22:15.198Z,98103.13
2018-05-04T14:24:43.494Z,98107.51
2018-05-04T14:27:11.829Z,98107.59
2018-05-04T14:29:40.124Z,98114.84
2018-05-04T14:32:08.418Z,98109.88
2018-05-04T14:34:37.330Z,98120.55
2018-05-04T14:37:05.619Z,98114.80
2018-05-04T14:39:34.674Z,98115.30
2018-05-04T14:42:03.026Z,98126.30
2018-05-04T14:44:31.319Z,98116.67
2018-05-04T14:46:59.609Z,98119.00
2018-05-04T14:49:27.958Z,98108.86
2018-05-04T14:51:57.043Z,98106.98
2018-05-04T14:54:25.298Z,98109.23
2018-05-04T14:56:53.416Z,98111.75
2018-05-04T14:59:21.811Z,98113.44
2018-05-04T15:01:50.132Z,98114.59
2018-05-04T15:04:18.429Z,98110.89
2018-05-04T15:06:47.178Z,98121.11
2018-05-04T15:09:15.516Z,98125.18
2018-05-04T15:11:44.122Z,98121.77
2018-05-04T15:14:12.839Z,98121.09
2018-05-04T15:16:41.234Z,98125.33
2018-05-04T15:19:09.490Z,98119.09
2018-05-04T15:21:37.782Z,98122.80
2018-05-04T15:24:06.288Z,98128.45
2018-05-04T15:26:34.586Z,98128.01
2018-05-04T15:29:02.875Z,98122.83
2018-05-04T15:31:31.963Z,98121.92
2018-05-04T15:34:00.879Z,98125.83
2018-05-04T15:36:29.183Z,98126.76
2018-05-04T15:38:57.754Z,98118.59
2018-05-04T15:41:26.046Z,98126.55
2018-05-04T15:43:54.344Z,98125.13
2018-05-04T15:46:23.227Z,98132.59
2018-05-04T15:48:57.139Z,98127.92
2018-05-04T15:51:31.215Z,98127.34
2018-05-04T15:53:59.555Z,98128.52
2018-05-04T15:56:27.846Z,98134.92
2018-05-04T15:58:56.222Z,98126.75
2018-05-04T16:01:24.556Z,98131.77
2018-05-04T16:03:52.859Z,98127.68
2018-05-04T16:06:21.174Z,98135.64
2018-05-04T16:08:49.466Z,98136.88
2018-05-04T16:11:18.523Z,98130.77
2018-05-04T16:13:47.871Z,98126.98
2018-05-04T16:16:16.931Z,98138.59
2018-05-04T16:18:45.896Z,98143.51
2018-05-04T16:21:14.226Z,98134.78
2018-05-04T16:23:42.506Z,98149.97
2018-05-04T16:26:11.232Z,98143.66
2018-05-04T16:28:39.637Z,98147.19
2018-05-04T16:31:07.927Z,98153.72
2018-05-04T16:33:36.261Z,98151.82
2018-05-04T16:36:04.614Z,98144.28
2018-05-04T16:38:32.903Z,98151.66
2018-05-04T16:41:01.231Z,98168.56
2018-05-04T16:43:29.518Z,98159.34
2018-05-04T16:45:57.802Z,98153.10
2018-05-04T16:48:33.027Z,98160.01
2018-05-04T16:51:01.718Z,98156.11
2018-05-04T16:53:30.388Z,98158.56
2018-05-04T16:55:58.789Z,98160.39
2018-05-04T16:58:27.815Z,98164.69
2018-05-04T17:00:56.979Z,98165.46
2018-05-04T17:03:25.213Z,98161.95
2018-05-04T17:05:59.503Z,98173.11
2018-05-04T17:08:27.894Z,98168.97
2018-05-04T17:10:56.762Z,98176.22
2018-05-04T17:13:25.703Z,98176.23
2018-05-04T17:15:54.333Z,98177.39
2018-05-04T17:18:22.600Z,98183.09
2018-05-04T17:20:50.930Z,98184.39
2018-05-04T17:23:19.218Z,98193.09
2018-05-04T17:25:47.510Z,98187.87
2018-05-04T17:28:15.814Z,98185.56
2018-05-04T17:30:44.294Z,98188.16
2018-05-04T17:33:12.604Z,98194.61
2018-05-04T17:35:40.926Z,98193.59
2018-05-04T17:38:09.214Z,98202.41
2018-05-04T17:40:39.291Z,98202.53
2018-05-04T17:43:08.246Z,98206.92
2018-05-04T17:45:36.541Z,98211.80
2018-05-04T17:48:04.845Z,98210.48
2018-05-04T17:50:33.177Z,98215.25
2018-05-04T17:53:01.862Z,98219.81
2018-05-04T17:55:30.146Z,98221.48
2018-05-04T17:57:59.246Z,98227.80
2018-05-04T18:00:28.294Z,98223.66
2018-05-04T18:02:56.859Z,98231.63
2018-05-04T18:05:25.196Z,98240.55
2018-05-04T18:07:54.859Z,98230.86
2018-05-04T18:10:23.827Z,98248.12
2018-05-04T18:12:52.215Z,98237.70
2018-05-04T18:15:20.895Z,98245.69
2018-05-04T18:17:49.609Z,98244.50
2018-05-04T18:20:17.891Z,98238.20
2018-05-04T18:22:46.570Z,98250.66
2018-05-04T18:25:15.266Z,98267.55
2018-05-04T18:27:43.643Z,98255.92
2018-05-04T18:30:12.628Z,98262.00
2018-05-04T18:32:40.954Z,98256.55
2018-05-04T18:35:09.242Z,98266.34
2018-05-04T18:37:37.522Z,98264.63
2018-05-04T18:40:05.853Z,98272.44
2018-05-04T18:42:34.139Z,98280.21
2018-05-04T18:45:02.568Z,98270.25
2018-05-04T18:47:31.863Z,98271.45
2018-05-04T18:50:01.318Z,98277.53
2018-05-04T18:52:29.619Z,98285.09
2018-05-04T18:54:57.988Z,98281.78
2018-05-04T18:57:26.850Z,98288.81
2018-05-04T18:59:55.882Z,98294.37
2018-05-04T19:02:30.653Z,98299.66
2018-05-04T19:04:58.931Z,98298.19
2018-05-04T19:07:27.219Z,98302.52
2018-05-04T19:09:56.522Z,98306.42
2018-05-04T19:12:25.763Z,98308.30
2018-05-04T19:14:55.079Z,98303.31
2018-05-04T19:17:23.423Z,98298.83
2018-05-04T19:19:51.751Z,98312.23
2018-05-04T19:22:20.066Z,98312.00
2018-05-04T19:24:48.646Z,98311.62
2018-05-04T19:27:17.131Z,98312.66
2018-05-04T19:29:45.411Z,98322.98
2018-05-04T19:32:14.314Z,98323.39
2018-05-04T19:34:43.871Z,98322.21
2018-05-04T19:37:12.123Z,98337.84
2018-05-04T19:39:40.826Z,98336.18
2018-05-04T19:42:09.191Z,98335.73
2018-05-04T19:44:37.426Z,98340.05
2018-05-04T19:47:05.823Z,98348.00
2018-05-04T19:49:34.942Z,98357.74
2018-05-04T19:52:04.031Z,98368.14
2018-05-04T19:54:33.550Z,98372.38
2018-05-04T19:57:03.512Z,98377.31
2018-05-04T19:59:31.935Z,98386.39
2018-05-04T20:02:00.466Z,98388.13
2018-05-04T20:04:28.799Z,98389.52
2018-05-04T20:06:57.843Z,98391.91
2018-05-04T20:09:26.455Z,98388.27
2018-05-04T20:11:54.811Z,98391.93
2018-05-04T20:14:24.114Z,98396.08
2018-05-04T20:16:52.623Z,98396.38
2018-05-04T20:19:20.972Z,98397.75
2018-05-04T20:21:49.447Z,98400.05
2018-05-04T20:24:17.967Z,98404.10
2018-05-04T20:26:47.251Z,98407.20
2018-05-04T20:29:15.618Z,98409.49
2018-05-04T20:31:43.897Z,98403.78
2018-05-04T20:34:12.886Z,98400.41
2018-05-04T20:36:42.006Z,98398.19
2018-05-04T20:39:10.490Z,98404.40
2018-05-04T20:41:38.770Z,98411.84
2018-05-04T20:44:08.557Z,98415.83
2018-05-04T20:46:37.600Z,98417.53
2018-05-04T20:49:05.911Z,98421.67
2018-05-04T20:51:35.055Z,98423.41
2018-05-04T20:54:03.857Z,98433.45
2018-05-04T20:56:33.152Z,98433.56
2018-05-04T20:59:01.490Z,98431.30
2018-05-04T21:01:29.767Z,98428.19
2018-05-04T21:03:58.049Z,98429.55
2018-05-04T21:06:26.948Z,98431.23
2018-05-04T21:08:55.427Z,98431.06
2018-05-04T21:11:23.816Z,98435.03
2018-05-04T21:13:52.090Z,98437.59
2018-05-04T21:16:20.464Z,98440.88
2018-05-04T21:18:48.803Z,98446.53
2018-05-04T21:21:17.517Z,98442.28
2018-05-04T21:23:46.526Z,98442.88
2018-05-04T21:26:14.847Z,98439.48
2018-05-04T21:28:43.206Z,98443.66
2018-05-04T21:31:11.560Z,98449.36
2018-05-04T21:33:39.846Z,98444.88
2018-05-04T21:36:08.183Z,98445.27
2018-05-04T21:38:36.714Z,98450.30
2018-05-04T21:41:05.134Z,98447.82
2018-05-04T21:43:33.458Z,98437.51
2018-05-04T21:46:01.743Z,98444.47
2018-05-04T21:48:30.019Z,98442.23
2018-05-04T21:50:58.340Z,98446.55
2018-05-04T21:53:26.647Z,98439.60
2018-05-04T21:55:55.258Z,98439.28
2018-05-04T21:58:23.579Z,98449.17
2018-05-04T22:00:52.399Z,98452.30
2018-05-04T22:03:20.675Z,98449.30
2018-05-04T22:05:49.072Z,98446.23
2018-05-04T22:08:17.351Z,98451.05
2018-05-04T22:10:46.163Z,98454.02
2018-05-04T22:13:14.513Z,98452.89
2018-05-04T22:15:43.095Z,98454.29
2018-05-04T22:18:11.376Z,98452.50
2018-05-04T22:20:40.406Z,98459.28
2018-05-04T22:23:08.686Z,98458.32
2018-05-04T22:25:37.725Z,98458.94
2018-05-04T22:28:06.045Z,98452.35
2018-05-04T22:30:34.092Z,98456.84
2018-05-04T22:33:02.453Z,98459.22
2018-05-04T22:35:30.782Z,98461.17
2018-05-04T22:37:59.099Z,98465.66
2018-05-04T22:40:27.416Z,98464.56
2018-05-04T22:42:56.247Z,98473.22
2018-05-04T22:45:25.115Z,98473.22
2018-05-04T22:47:53.410Z,98479.84
2018-05-04T22:50:21.945Z,98480.38
2018-05-04T22:52:50.651Z,98477.81
2018-05-04T22:55:19.694Z,98485.13
2018-05-04T22:57:48.498Z,98476.44
2018-05-04T23:00:16.935Z,98477.26
2018-05-04T23:02:45.700Z,98476.09
2018-05-04T23:05:14.733Z,98474.95
2018-05-04T23:07:43.229Z,98468.27
2018-05-04T23:10:11.548Z,98471.81
2018-05-04T23:12:39.834Z,98470.95
2018-05-04T23:15:08.114Z,98473.48
2018-05-04T23:17:36.711Z,98478.27
2018-05-04T23:20:05.876Z,98477.55
2018-05-04T23:22:34.162Z,98473.53
2018-05-04T23:25:02.475Z,98476.08
2018-05-04T23:27:30.756Z,98478.42
2018-05-04T23:29:59.038Z,98477.50
2018-05-04T23:32:27.350Z,98479.06
2018-05-04T23:34:55.645Z,98481.66
2018-05-04T23:37:23.939Z,98476.45
2018-05-04T23:39:52.258Z,98484.00
2018-05-04T23:42:20.546Z,98479.07
2018-05-04T23:44:48.914Z,98478.34
2018-05-04T23:47:17.242Z,98481.30
2018-05-04T23:49:46.302Z,98473.62
2018-05-04T23:52:14.578Z,98475.19
2018-05-04T23:54:42.894Z,98473.29
2018-05-04T23:57:11.782Z,98479.86
2018-05-04T23:59:40.835Z,98482.25
